sensor_id;sensor_type;location;lat;lon;timestamp;temperature;humidity
26641;DHT22;14269;47.358;0.724;2023-08-08T00:00:28;19.0;57.0
26641;DHT22;14269;47.358;0.724;2023-08-08T00:02:59;19.0;57.0
26641;DHT22;14269;47.358;0.724;2023-08-08T00:05:31;19.0;58.0
26641;DHT22;14269;47.358;0.724;2023-08-08T00:08:03;19.0;58.0
26641;DHT22;14269;47.358;0.724;2023-08-08T00:10:34;19.0;57.0
26641;DHT22;14269;47.358;0.724;2023-08-08T00:13:06;19.0;57.0
26641;DHT22;14269;47.358;0.724;2023-08-08T00:15:38;19.0;57.0
26641;DHT22;14269;47.358;0.724;2023-08-08T00:18:09;19.0;57.0
26641;DHT22;14269;47.358;0.724;2023-08-08T00:20:41;19.0;57.0
26641;DHT22;14269;47.358;0.724;2023-08-08T00:23:12;19.0;58.0
26641;DHT22;14269;47.358;0.724;2023-08-08T00:25:49;19.0;59.0
26641;DHT22;14269;47.358;0.724;2023-08-08T00:28:26;19.0;59.0
26641;DHT22;14269;47.358;0.724;2023-08-08T00:30:58;19.0;58.0
26641;DHT22;14269;47.358;0.724;2023-08-08T00:33:29;19.0;58.0
26641;DHT22;14269;47.358;0.724;2023-08-08T00:36:01;19.0;60.0
26641;DHT22;14269;47.358;0.724;2023-08-08T00:38:32;19.0;59.0
26641;DHT22;14269;47.358;0.724;2023-08-08T00:41:04;19.0;59.0
26641;DHT22;14269;47.358;0.724;2023-08-08T00:43:36;19.0;59.0
26641;DHT22;14269;47.358;0.724;2023-08-08T00:46:07;19.0;58.0
26641;DHT22;14269;47.358;0.724;2023-08-08T00:48:39;19.0;58.0
26641;DHT22;14269;47.358;0.724;2023-08-08T00:51:11;19.0;58.0
26641;DHT22;14269;47.358;0.724;2023-08-08T00:53:44;19.0;58.0
26641;DHT22;14269;47.358;0.724;2023-08-08T00:56:25;19.0;58.0
26641;DHT22;14269;47.358;0.724;2023-08-08T00:59:07;19.0;58.0
26641;DHT22;14269;47.358;0.724;2023-08-08T01:01:48;19.0;57.0
26641;DHT22;14269;47.358;0.724;2023-08-08T01:04:20;19.0;58.0
26641;DHT22;14269;47.358;0.724;2023-08-08T01:06:58;19.0;58.0
26641;DHT22;14269;47.358;0.724;2023-08-08T01:09:37;19.0;59.0
26641;DHT22;14269;47.358;0.724;2023-08-08T01:12:15;19.0;60.0
26641;DHT22;14269;47.358;0.724;2023-08-08T01:14:46;19.0;59.0
26641;DHT22;14269;47.358;0.724;2023-08-08T01:17:18;19.0;59.0
26641;DHT22;14269;47.358;0.724;2023-08-08T01:19:59;19.0;58.0
26641;DHT22;14269;47.358;0.724;2023-08-08T01:22:36;19.0;58.0
26641;DHT22;14269;47.358;0.724;2023-08-08T01:25:13;19.0;59.0
26641;DHT22;14269;47.358;0.724;2023-08-08T01:27:44;19.0;59.0
26641;DHT22;14269;47.358;0.724;2023-08-08T01:30:16;19.0;59.0
26641;DHT22;14269;47.358;0.724;2023-08-08T01:32:48;19.0;59.0
26641;DHT22;14269;47.358;0.724;2023-08-08T01:35:20;19.0;59.0
26641;DHT22;14269;47.358;0.724;2023-08-08T01:38:09;19.0;59.0
26641;DHT22;14269;47.358;0.724;2023-08-08T01:40:44;19.0;59.0
26641;DHT22;14269;47.358;0.724;2023-08-08T01:43:25;19.0;59.0
26641;DHT22;14269;47.358;0.724;2023-08-08T01:46:07;19.0;59.0
26641;DHT22;14269;47.358;0.724;2023-08-08T01:48:48;19.0;59.0
26641;DHT22;14269;47.358;0.724;2023-08-08T01:51:20;19.0;59.0
26641;DHT22;14269;47.358;0.724;2023-08-08T01:53:52;19.0;59.0
26641;DHT22;14269;47.358;0.724;2023-08-08T01:56:23;19.0;60.0
26641;DHT22;14269;47.358;0.724;2023-08-08T01:58:55;19.0;60.0
26641;DHT22;14269;47.358;0.724;2023-08-08T02:01:27;19.0;59.0
26641;DHT22;14269;47.358;0.724;2023-08-08T02:03:58;19.0;59.0
26641;DHT22;14269;47.358;0.724;2023-08-08T02:06:30;19.0;59.0
26641;DHT22;14269;47.358;0.724;2023-08-08T02:09:02;19.0;60.0
26641;DHT22;14269;47.358;0.724;2023-08-08T02:11:33;19.0;59.0
26641;DHT22;14269;47.358;0.724;2023-08-08T02:14:05;19.0;60.0
26641;DHT22;14269;47.358;0.724;2023-08-08T02:16:36;19.0;60.0
26641;DHT22;14269;47.358;0.724;2023-08-08T02:19:08;19.0;60.0
26641;DHT22;14269;47.358;0.724;2023-08-08T02:21:40;19.0;59.0
26641;DHT22;14269;47.358;0.724;2023-08-08T02:24:11;19.0;60.0
26641;DHT22;14269;47.358;0.724;2023-08-08T02:26:43;19.0;60.0
26641;DHT22;14269;47.358;0.724;2023-08-08T02:29:15;19.0;60.0
26641;DHT22;14269;47.358;0.724;2023-08-08T02:31:46;19.0;60.0
26641;DHT22;14269;47.358;0.724;2023-08-08T02:34:18;19.0;60.0
26641;DHT22;14269;47.358;0.724;2023-08-08T02:36:50;19.0;60.0
26641;DHT22;14269;47.358;0.724;2023-08-08T02:39:21;19.0;60.0
26641;DHT22;14269;47.358;0.724;2023-08-08T02:41:53;19.0;60.0
26641;DHT22;14269;47.358;0.724;2023-08-08T02:44:25;19.0;60.0
26641;DHT22;14269;47.358;0.724;2023-08-08T02:46:56;19.0;60.0
26641;DHT22;14269;47.358;0.724;2023-08-08T02:49:28;19.0;60.0
26641;DHT22;14269;47.358;0.724;2023-08-08T02:52:09;19.0;60.0
26641;DHT22;14269;47.358;0.724;2023-08-08T02:54:41;19.0;60.0
26641;DHT22;14269;47.358;0.724;2023-08-08T02:57:13;19.0;60.0
26641;DHT22;14269;47.358;0.724;2023-08-08T02:59:44;18.0;62.0
26641;DHT22;14269;47.358;0.724;2023-08-08T03:02:16;19.0;62.0
26641;DHT22;14269;47.358;0.724;2023-08-08T03:04:48;19.0;63.0
26641;DHT22;14269;47.358;0.724;2023-08-08T03:07:19;19.0;62.0
26641;DHT22;14269;47.358;0.724;2023-08-08T03:09:51;19.0;62.0
26641;DHT22;14269;47.358;0.724;2023-08-08T03:12:23;19.0;62.0
26641;DHT22;14269;47.358;0.724;2023-08-08T03:14:54;19.0;62.0
26641;DHT22;14269;47.358;0.724;2023-08-08T03:17:26;19.0;63.0
26641;DHT22;14269;47.358;0.724;2023-08-08T03:19:58;19.0;63.0
26641;DHT22;14269;47.358;0.724;2023-08-08T03:22:29;19.0;62.0
26641;DHT22;14269;47.358;0.724;2023-08-08T03:25:01;18.0;63.0
26641;DHT22;14269;47.358;0.724;2023-08-08T03:27:33;19.0;62.0
26641;DHT22;14269;47.358;0.724;2023-08-08T03:30:05;19.0;62.0
26641;DHT22;14269;47.358;0.724;2023-08-08T03:32:46;18.0;62.0
26641;DHT22;14269;47.358;0.724;2023-08-08T03:35:18;18.0;63.0
26641;DHT22;14269;47.358;0.724;2023-08-08T03:37:49;18.0;62.0
26641;DHT22;14269;47.358;0.724;2023-08-08T03:40:21;18.0;62.0
26641;DHT22;14269;47.358;0.724;2023-08-08T03:42:53;18.0;63.0
26641;DHT22;14269;47.358;0.724;2023-08-08T03:45:24;18.0;63.0
26641;DHT22;14269;47.358;0.724;2023-08-08T03:47:56;18.0;62.0
26641;DHT22;14269;47.358;0.724;2023-08-08T03:50:27;18.0;62.0
26641;DHT22;14269;47.358;0.724;2023-08-08T03:52:59;18.0;63.0
26641;DHT22;14269;47.358;0.724;2023-08-08T03:55:32;18.0;63.0
26641;DHT22;14269;47.358;0.724;2023-08-08T03:58:13;18.0;63.0
26641;DHT22;14269;47.358;0.724;2023-08-08T04:00:46;18.0;63.0
26641;DHT22;14269;47.358;0.724;2023-08-08T04:03:26;18.0;62.0
26641;DHT22;14269;47.358;0.724;2023-08-08T04:05:58;18.0;62.0
26641;DHT22;14269;47.358;0.724;2023-08-08T04:08:29;18.0;63.0
26641;DHT22;14269;47.358;0.724;2023-08-08T04:11:01;18.0;63.0
26641;DHT22;14269;47.358;0.724;2023-08-08T04:13:33;18.0;63.0
26641;DHT22;14269;47.358;0.724;2023-08-08T04:16:05;18.0;63.0
26641;DHT22;14269;47.358;0.724;2023-08-08T04:18:36;18.0;63.0
26641;DHT22;14269;47.358;0.724;2023-08-08T04:21:08;18.0;64.0
26641;DHT22;14269;47.358;0.724;2023-08-08T04:23:39;18.0;63.0
26641;DHT22;14269;47.358;0.724;2023-08-08T04:26:11;18.0;63.0
26641;DHT22;14269;47.358;0.724;2023-08-08T04:28:42;18.0;62.0
26641;DHT22;14269;47.358;0.724;2023-08-08T04:31:14;18.0;63.0
26641;DHT22;14269;47.358;0.724;2023-08-08T04:33:46;18.0;62.0
26641;DHT22;14269;47.358;0.724;2023-08-08T04:36:18;18.0;62.0
26641;DHT22;14269;47.358;0.724;2023-08-08T04:38:49;18.0;62.0
26641;DHT22;14269;47.358;0.724;2023-08-08T04:41:21;18.0;63.0
26641;DHT22;14269;47.358;0.724;2023-08-08T04:43:52;18.0;63.0
26641;DHT22;14269;47.358;0.724;2023-08-08T04:46:24;18.0;64.0
26641;DHT22;14269;47.358;0.724;2023-08-08T04:48:56;18.0;64.0
26641;DHT22;14269;47.358;0.724;2023-08-08T04:51:27;18.0;64.0
26641;DHT22;14269;47.358;0.724;2023-08-08T04:53:59;18.0;63.0
26641;DHT22;14269;47.358;0.724;2023-08-08T04:56:30;18.0;62.0
26641;DHT22;14269;47.358;0.724;2023-08-08T04:59:02;18.0;62.0
26641;DHT22;14269;47.358;0.724;2023-08-08T05:01:34;18.0;62.0
26641;DHT22;14269;47.358;0.724;2023-08-08T05:04:06;18.0;61.0
26641;DHT22;14269;47.358;0.724;2023-08-08T05:06:37;19.0;61.0
26641;DHT22;14269;47.358;0.724;2023-08-08T05:09:09;19.0;61.0
26641;DHT22;14269;47.358;0.724;2023-08-08T05:11:40;18.0;61.0
26641;DHT22;14269;47.358;0.724;2023-08-08T05:14:12;18.0;62.0
26641;DHT22;14269;47.358;0.724;2023-08-08T05:16:44;18.0;63.0
26641;DHT22;14269;47.358;0.724;2023-08-08T05:19:15;18.0;63.0
26641;DHT22;14269;47.358;0.724;2023-08-08T05:21:47;18.0;63.0
26641;DHT22;14269;47.358;0.724;2023-08-08T05:24:19;18.0;63.0
26641;DHT22;14269;47.358;0.724;2023-08-08T05:26:50;18.0;63.0
26641;DHT22;14269;47.358;0.724;2023-08-08T05:29:22;18.0;62.0
26641;DHT22;14269;47.358;0.724;2023-08-08T05:31:54;18.0;62.0
26641;DHT22;14269;47.358;0.724;2023-08-08T05:34:25;19.0;61.0
26641;DHT22;14269;47.358;0.724;2023-08-08T05:36:57;18.0;61.0
26641;DHT22;14269;47.358;0.724;2023-08-08T05:39:29;18.0;61.0
26641;DHT22;14269;47.358;0.724;2023-08-08T05:42:10;18.0;62.0
26641;DHT22;14269;47.358;0.724;2023-08-08T05:44:42;18.0;62.0
26641;DHT22;14269;47.358;0.724;2023-08-08T05:47:14;18.0;62.0
26641;DHT22;14269;47.358;0.724;2023-08-08T05:49:45;18.0;62.0
26641;DHT22;14269;47.358;0.724;2023-08-08T05:52:17;18.0;63.0
26641;DHT22;14269;47.358;0.724;2023-08-08T05:54:48;18.0;63.0
26641;DHT22;14269;47.358;0.724;2023-08-08T05:57:21;18.0;62.0
26641;DHT22;14269;47.358;0.724;2023-08-08T05:59:52;18.0;62.0
26641;DHT22;14269;47.358;0.724;2023-08-08T06:02:23;19.0;62.0
26641;DHT22;14269;47.358;0.724;2023-08-08T06:04:55;19.0;61.0
26641;DHT22;14269;47.358;0.724;2023-08-08T06:07:27;19.0;60.0
26641;DHT22;14269;47.358;0.724;2023-08-08T06:09:59;19.0;60.0
26641;DHT22;14269;47.358;0.724;2023-08-08T06:12:30;19.0;61.0
26641;DHT22;14269;47.358;0.724;2023-08-08T06:15:04;19.0;60.0
26641;DHT22;14269;47.358;0.724;2023-08-08T06:17:43;19.0;59.0
26641;DHT22;14269;47.358;0.724;2023-08-08T06:20:15;19.0;59.0
26641;DHT22;14269;47.358;0.724;2023-08-08T06:22:47;19.0;59.0
26641;DHT22;14269;47.358;0.724;2023-08-08T06:25:18;19.0;59.0
26641;DHT22;14269;47.358;0.724;2023-08-08T06:27:50;19.0;58.0
26641;DHT22;14269;47.358;0.724;2023-08-08T06:30:22;19.0;58.0
26641;DHT22;14269;47.358;0.724;2023-08-08T06:32:53;19.0;58.0
26641;DHT22;14269;47.358;0.724;2023-08-08T06:35:25;19.0;57.0
26641;DHT22;14269;47.358;0.724;2023-08-08T06:37:57;19.0;57.0
26641;DHT22;14269;47.358;0.724;2023-08-08T06:40:28;19.0;57.0
26641;DHT22;14269;47.358;0.724;2023-08-08T06:43:00;20.0;57.0
26641;DHT22;14269;47.358;0.724;2023-08-08T06:45:32;20.0;56.0
26641;DHT22;14269;47.358;0.724;2023-08-08T06:48:04;20.0;56.0
26641;DHT22;14269;47.358;0.724;2023-08-08T06:50:45;20.0;56.0
26641;DHT22;14269;47.358;0.724;2023-08-08T06:53:17;20.0;56.0
26641;DHT22;14269;47.358;0.724;2023-08-08T06:55:48;20.0;55.0
26641;DHT22;14269;47.358;0.724;2023-08-08T06:58:20;20.0;55.0
26641;DHT22;14269;47.358;0.724;2023-08-08T07:00:52;20.0;54.0
26641;DHT22;14269;47.358;0.724;2023-08-08T07:03:23;20.0;54.0
26641;DHT22;14269;47.358;0.724;2023-08-08T07:05:55;20.0;54.0
26641;DHT22;14269;47.358;0.724;2023-08-08T07:08:26;20.0;54.0
26641;DHT22;14269;47.358;0.724;2023-08-08T07:10:58;20.0;53.0
26641;DHT22;14269;47.358;0.724;2023-08-08T07:13:30;20.0;53.0
26641;DHT22;14269;47.358;0.724;2023-08-08T07:16:01;20.0;53.0
26641;DHT22;14269;47.358;0.724;2023-08-08T07:18:33;20.0;53.0
26641;DHT22;14269;47.358;0.724;2023-08-08T07:21:06;20.0;53.0
26641;DHT22;14269;47.358;0.724;2023-08-08T07:23:36;20.0;53.0
26641;DHT22;14269;47.358;0.724;2023-08-08T07:26:08;21.0;52.0
26641;DHT22;14269;47.358;0.724;2023-08-08T07:28:40;21.0;52.0
26641;DHT22;14269;47.358;0.724;2023-08-08T07:31:11;21.0;51.0
26641;DHT22;14269;47.358;0.724;2023-08-08T07:33:43;21.0;50.0
26641;DHT22;14269;47.358;0.724;2023-08-08T07:36:15;21.0;50.0
26641;DHT22;14269;47.358;0.724;2023-08-08T07:38:46;22.0;49.0
26641;DHT22;14269;47.358;0.724;2023-08-08T07:41:18;22.0;49.0
26641;DHT22;14269;47.358;0.724;2023-08-08T07:43:50;22.0;49.0
26641;DHT22;14269;47.358;0.724;2023-08-08T07:46:22;22.0;48.0
26641;DHT22;14269;47.358;0.724;2023-08-08T07:48:53;22.0;48.0
26641;DHT22;14269;47.358;0.724;2023-08-08T07:51:25;22.0;48.0
26641;DHT22;14269;47.358;0.724;2023-08-08T07:53:56;22.0;48.0
26641;DHT22;14269;47.358;0.724;2023-08-08T07:56:28;22.0;48.0
26641;DHT22;14269;47.358;0.724;2023-08-08T07:59:00;22.0;48.0
26641;DHT22;14269;47.358;0.724;2023-08-08T08:01:41;23.0;47.0
26641;DHT22;14269;47.358;0.724;2023-08-08T08:04:13;23.0;47.0
26641;DHT22;14269;47.358;0.724;2023-08-08T08:06:45;22.0;47.0
26641;DHT22;14269;47.358;0.724;2023-08-08T08:09:16;22.0;47.0
26641;DHT22;14269;47.358;0.724;2023-08-08T08:11:48;23.0;47.0
26641;DHT22;14269;47.358;0.724;2023-08-08T08:14:21;23.0;47.0
26641;DHT22;14269;47.358;0.724;2023-08-08T08:17:01;23.0;46.0
26641;DHT22;14269;47.358;0.724;2023-08-08T08:19:33;23.0;46.0
26641;DHT22;14269;47.358;0.724;2023-08-08T08:22:05;23.0;46.0
26641;DHT22;14269;47.358;0.724;2023-08-08T08:24:36;23.0;45.0
26641;DHT22;14269;47.358;0.724;2023-08-08T08:27:08;23.0;45.0
26641;DHT22;14269;47.358;0.724;2023-08-08T08:29:39;23.0;45.0
26641;DHT22;14269;47.358;0.724;2023-08-08T08:32:11;23.0;44.0
26641;DHT22;14269;47.358;0.724;2023-08-08T08:34:44;24.0;44.0
26641;DHT22;14269;47.358;0.724;2023-08-08T08:37:24;24.0;43.0
26641;DHT22;14269;47.358;0.724;2023-08-08T08:39:56;24.0;42.0
26641;DHT22;14269;47.358;0.724;2023-08-08T08:43:00;24.0;42.0
26641;DHT22;14269;47.358;0.724;2023-08-08T08:45:43;24.0;41.0
26641;DHT22;14269;47.358;0.724;2023-08-08T08:48:22;25.0;42.0
26641;DHT22;14269;47.358;0.724;2023-08-08T08:50:53;25.0;41.0
26641;DHT22;14269;47.358;0.724;2023-08-08T08:53:25;25.0;40.0
26641;DHT22;14269;47.358;0.724;2023-08-08T08:55:57;25.0;41.0
26641;DHT22;14269;47.358;0.724;2023-08-08T08:58:29;25.0;41.0
26641;DHT22;14269;47.358;0.724;2023-08-08T09:01:00;25.0;40.0
26641;DHT22;14269;47.358;0.724;2023-08-08T09:03:31;25.0;40.0
26641;DHT22;14269;47.358;0.724;2023-08-08T09:06:04;25.0;39.0
26641;DHT22;14269;47.358;0.724;2023-08-08T09:08:45;25.0;40.0
26641;DHT22;14269;47.358;0.724;2023-08-08T09:11:27;25.0;40.0
26641;DHT22;14269;47.358;0.724;2023-08-08T09:13:59;24.0;39.0
26641;DHT22;14269;47.358;0.724;2023-08-08T09:16:40;24.0;40.0
26641;DHT22;14269;47.358;0.724;2023-08-08T09:19:23;25.0;39.0
26641;DHT22;14269;47.358;0.724;2023-08-08T09:22:04;25.0;39.0
26641;DHT22;14269;47.358;0.724;2023-08-08T09:24:38;25.0;39.0
26641;DHT22;14269;47.358;0.724;2023-08-08T09:27:17;25.0;39.0
26641;DHT22;14269;47.358;0.724;2023-08-08T09:29:49;25.0;38.0
26641;DHT22;14269;47.358;0.724;2023-08-08T09:32:20;25.0;37.0
26641;DHT22;14269;47.358;0.724;2023-08-08T09:34:52;25.0;38.0
26641;DHT22;14269;47.358;0.724;2023-08-08T09:37:55;25.0;37.0
26641;DHT22;14269;47.358;0.724;2023-08-08T09:40:36;26.0;37.0
26641;DHT22;14269;47.358;0.724;2023-08-08T09:43:08;25.0;38.0
26641;DHT22;14269;47.358;0.724;2023-08-08T09:45:41;25.0;38.0
26641;DHT22;14269;47.358;0.724;2023-08-08T09:48:21;25.0;39.0
26641;DHT22;14269;47.358;0.724;2023-08-08T09:50:52;25.0;39.0
26641;DHT22;14269;47.358;0.724;2023-08-08T09:53:24;25.0;38.0
26641;DHT22;14269;47.358;0.724;2023-08-08T09:55:56;25.0;39.0
26641;DHT22;14269;47.358;0.724;2023-08-08T09:58:27;26.0;37.0
26641;DHT22;14269;47.358;0.724;2023-08-08T10:00:59;26.0;37.0
26641;DHT22;14269;47.358;0.724;2023-08-08T10:03:32;27.0;35.0
26641;DHT22;14269;47.358;0.724;2023-08-08T10:06:13;26.0;35.0
26641;DHT22;14269;47.358;0.724;2023-08-08T10:08:55;26.0;36.0
26641;DHT22;14269;47.358;0.724;2023-08-08T10:11:27;26.0;35.0
26641;DHT22;14269;47.358;0.724;2023-08-08T10:14:10;26.0;36.0
26641;DHT22;14269;47.358;0.724;2023-08-08T10:16:49;27.0;36.0
26641;DHT22;14269;47.358;0.724;2023-08-08T10:19:22;27.0;36.0
26641;DHT22;14269;47.358;0.724;2023-08-08T10:22:04;26.0;35.0
26641;DHT22;14269;47.358;0.724;2023-08-08T10:24:50;27.0;35.0
26641;DHT22;14269;47.358;0.724;2023-08-08T10:27:28;26.0;34.0
26641;DHT22;14269;47.358;0.724;2023-08-08T10:30:11;26.0;34.0
26641;DHT22;14269;47.358;0.724;2023-08-08T10:32:50;26.0;34.0
26641;DHT22;14269;47.358;0.724;2023-08-08T10:35:36;27.0;35.0
26641;DHT22;14269;47.358;0.724;2023-08-08T10:38:15;27.0;34.0
26641;DHT22;14269;47.358;0.724;2023-08-08T10:40:58;26.0;35.0
26641;DHT22;14269;47.358;0.724;2023-08-08T10:43:37;27.0;35.0
26641;DHT22;14269;47.358;0.724;2023-08-08T10:46:08;27.0;34.0
26641;DHT22;14269;47.358;0.724;2023-08-08T10:48:50;27.0;35.0
26641;DHT22;14269;47.358;0.724;2023-08-08T10:51:22;27.0;33.0
26641;DHT22;14269;47.358;0.724;2023-08-08T10:53:53;27.0;35.0
26641;DHT22;14269;47.358;0.724;2023-08-08T10:56:36;27.0;34.0
26641;DHT22;14269;47.358;0.724;2023-08-08T10:59:16;26.0;35.0
26641;DHT22;14269;47.358;0.724;2023-08-08T11:01:50;27.0;34.0
26641;DHT22;14269;47.358;0.724;2023-08-08T11:04:32;27.0;34.0
26641;DHT22;14269;47.358;0.724;2023-08-08T11:07:14;28.0;34.0
26641;DHT22;14269;47.358;0.724;2023-08-08T11:09:54;28.0;34.0
26641;DHT22;14269;47.358;0.724;2023-08-08T11:12:26;28.0;33.0
26641;DHT22;14269;47.358;0.724;2023-08-08T11:14:58;28.0;31.0
26641;DHT22;14269;47.358;0.724;2023-08-08T11:17:39;29.0;33.0
26641;DHT22;14269;47.358;0.724;2023-08-08T11:20:11;29.0;32.0
26641;DHT22;14269;47.358;0.724;2023-08-08T11:22:42;29.0;31.0
26641;DHT22;14269;47.358;0.724;2023-08-08T11:25:14;28.0;31.0
26641;DHT22;14269;47.358;0.724;2023-08-08T11:27:50;28.0;31.0
26641;DHT22;14269;47.358;0.724;2023-08-08T11:30:29;28.0;32.0
26641;DHT22;14269;47.358;0.724;2023-08-08T11:33:12;29.0;33.0
26641;DHT22;14269;47.358;0.724;2023-08-08T11:35:51;29.0;30.0
26641;DHT22;14269;47.358;0.724;2023-08-08T11:38:23;30.0;29.0
26641;DHT22;14269;47.358;0.724;2023-08-08T11:41:05;29.0;29.0
26641;DHT22;14269;47.358;0.724;2023-08-08T11:43:47;29.0;31.0
26641;DHT22;14269;47.358;0.724;2023-08-08T11:46:28;28.0;32.0
26641;DHT22;14269;47.358;0.724;2023-08-08T11:49:04;28.0;31.0
26641;DHT22;14269;47.358;0.724;2023-08-08T11:51:43;28.0;32.0
26641;DHT22;14269;47.358;0.724;2023-08-08T11:54:26;29.0;33.0
26641;DHT22;14269;47.358;0.724;2023-08-08T11:57:05;30.0;32.0
26641;DHT22;14269;47.358;0.724;2023-08-08T11:59:36;30.0;30.0
26641;DHT22;14269;47.358;0.724;2023-08-08T12:02:09;30.0;30.0
26641;DHT22;14269;47.358;0.724;2023-08-08T12:04:49;30.0;30.0
26641;DHT22;14269;47.358;0.724;2023-08-08T12:07:22;29.0;31.0
26641;DHT22;14269;47.358;0.724;2023-08-08T12:10:05;28.0;31.0
26641;DHT22;14269;47.358;0.724;2023-08-08T12:12:45;28.0;32.0
26641;DHT22;14269;47.358;0.724;2023-08-08T12:15:16;28.0;32.0
26641;DHT22;14269;47.358;0.724;2023-08-08T12:17:49;28.0;32.0
26641;DHT22;14269;47.358;0.724;2023-08-08T12:20:31;29.0;33.0
26641;DHT22;14269;47.358;0.724;2023-08-08T12:23:12;30.0;32.0
26641;DHT22;14269;47.358;0.724;2023-08-08T12:25:43;29.0;30.0
26641;DHT22;14269;47.358;0.724;2023-08-08T12:28:15;29.0;31.0
26641;DHT22;14269;47.358;0.724;2023-08-08T12:30:46;28.0;31.0
26641;DHT22;14269;47.358;0.724;2023-08-08T12:33:18;28.0;31.0
26641;DHT22;14269;47.358;0.724;2023-08-08T12:35:50;29.0;30.0
26641;DHT22;14269;47.358;0.724;2023-08-08T12:38:22;29.0;30.0
26641;DHT22;14269;47.358;0.724;2023-08-08T12:40:53;28.0;31.0
26641;DHT22;14269;47.358;0.724;2023-08-08T12:43:25;28.0;32.0
26641;DHT22;14269;47.358;0.724;2023-08-08T12:45:56;29.0;31.0
26641;DHT22;14269;47.358;0.724;2023-08-08T12:48:28;29.0;31.0
26641;DHT22;14269;47.358;0.724;2023-08-08T12:51:00;28.0;31.0
26641;DHT22;14269;47.358;0.724;2023-08-08T12:53:31;28.0;31.0
26641;DHT22;14269;47.358;0.724;2023-08-08T12:56:03;28.0;32.0
26641;DHT22;14269;47.358;0.724;2023-08-08T12:58:34;28.0;31.0
26641;DHT22;14269;47.358;0.724;2023-08-08T13:01:07;28.0;31.0
26641;DHT22;14269;47.358;0.724;2023-08-08T13:03:48;28.0;31.0
26641;DHT22;14269;47.358;0.724;2023-08-08T13:06:20;29.0;31.0
26641;DHT22;14269;47.358;0.724;2023-08-08T13:08:51;28.0;31.0
26641;DHT22;14269;47.358;0.724;2023-08-08T13:11:23;29.0;31.0
26641;DHT22;14269;47.358;0.724;2023-08-08T13:13:55;29.0;31.0
26641;DHT22;14269;47.358;0.724;2023-08-08T13:16:26;29.0;31.0
26641;DHT22;14269;47.358;0.724;2023-08-08T13:18:58;29.0;31.0
26641;DHT22;14269;47.358;0.724;2023-08-08T13:21:29;29.0;30.0
26641;DHT22;14269;47.358;0.724;2023-08-08T13:24:01;28.0;30.0
26641;DHT22;14269;47.358;0.724;2023-08-08T13:26:33;28.0;31.0
26641;DHT22;14269;47.358;0.724;2023-08-08T13:29:04;29.0;30.0
26641;DHT22;14269;47.358;0.724;2023-08-08T13:31:36;29.0;31.0
26641;DHT22;14269;47.358;0.724;2023-08-08T13:34:08;29.0;32.0
26641;DHT22;14269;47.358;0.724;2023-08-08T13:36:39;29.0;32.0
26641;DHT22;14269;47.358;0.724;2023-08-08T13:39:11;29.0;30.0
26641;DHT22;14269;47.358;0.724;2023-08-08T13:41:43;29.0;31.0
26641;DHT22;14269;47.358;0.724;2023-08-08T13:44:14;29.0;30.0
26641;DHT22;14269;47.358;0.724;2023-08-08T13:46:46;30.0;31.0
26641;DHT22;14269;47.358;0.724;2023-08-08T13:49:18;29.0;30.0
26641;DHT22;14269;47.358;0.724;2023-08-08T13:51:49;29.0;30.0
26641;DHT22;14269;47.358;0.724;2023-08-08T13:54:21;28.0;31.0
26641;DHT22;14269;47.358;0.724;2023-08-08T13:56:53;28.0;32.0
26641;DHT22;14269;47.358;0.724;2023-08-08T13:59:24;29.0;31.0
26641;DHT22;14269;47.358;0.724;2023-08-08T14:01:56;29.0;32.0
26641;DHT22;14269;47.358;0.724;2023-08-08T14:04:27;29.0;30.0
26641;DHT22;14269;47.358;0.724;2023-08-08T14:06:59;28.0;31.0
26641;DHT22;14269;47.358;0.724;2023-08-08T14:09:31;28.0;33.0
26641;DHT22;14269;47.358;0.724;2023-08-08T14:12:03;29.0;33.0
26641;DHT22;14269;47.358;0.724;2023-08-08T14:14:44;29.0;32.0
26641;DHT22;14269;47.358;0.724;2023-08-08T14:17:16;30.0;32.0
26641;DHT22;14269;47.358;0.724;2023-08-08T14:19:48;29.0;31.0
26641;DHT22;14269;47.358;0.724;2023-08-08T14:22:19;29.0;32.0
26641;DHT22;14269;47.358;0.724;2023-08-08T14:24:51;29.0;31.0
26641;DHT22;14269;47.358;0.724;2023-08-08T14:27:23;29.0;32.0
26641;DHT22;14269;47.358;0.724;2023-08-08T14:29:54;28.0;31.0
26641;DHT22;14269;47.358;0.724;2023-08-08T14:32:26;29.0;32.0
26641;DHT22;14269;47.358;0.724;2023-08-08T14:34:57;29.0;32.0
26641;DHT22;14269;47.358;0.724;2023-08-08T14:37:29;29.0;31.0
26641;DHT22;14269;47.358;0.724;2023-08-08T14:40:11;29.0;32.0
26641;DHT22;14269;47.358;0.724;2023-08-08T14:42:42;29.0;30.0
26641;DHT22;14269;47.358;0.724;2023-08-08T14:45:14;29.0;31.0
26641;DHT22;14269;47.358;0.724;2023-08-08T14:47:46;29.0;30.0
26641;DHT22;14269;47.358;0.724;2023-08-08T14:50:17;28.0;31.0
26641;DHT22;14269;47.358;0.724;2023-08-08T14:52:49;29.0;32.0
26641;DHT22;14269;47.358;0.724;2023-08-08T14:55:21;29.0;32.0
26641;DHT22;14269;47.358;0.724;2023-08-08T14:57:52;29.0;33.0
26641;DHT22;14269;47.358;0.724;2023-08-08T15:00:24;29.0;32.0
26641;DHT22;14269;47.358;0.724;2023-08-08T15:02:56;29.0;33.0
26641;DHT22;14269;47.358;0.724;2023-08-08T15:05:27;29.0;32.0
26641;DHT22;14269;47.358;0.724;2023-08-08T15:07:59;29.0;32.0
26641;DHT22;14269;47.358;0.724;2023-08-08T15:10:31;29.0;32.0
26641;DHT22;14269;47.358;0.724;2023-08-08T15:13:02;28.0;32.0
26641;DHT22;14269;47.358;0.724;2023-08-08T15:15:34;28.0;32.0
26641;DHT22;14269;47.358;0.724;2023-08-08T15:18:06;28.0;33.0
26641;DHT22;14269;47.358;0.724;2023-08-08T15:20:37;28.0;33.0
26641;DHT22;14269;47.358;0.724;2023-08-08T15:23:10;29.0;34.0
26641;DHT22;14269;47.358;0.724;2023-08-08T15:25:51;28.0;33.0
26641;DHT22;14269;47.358;0.724;2023-08-08T15:28:23;28.0;32.0
26641;DHT22;14269;47.358;0.724;2023-08-08T15:31:04;28.0;33.0
26641;DHT22;14269;47.358;0.724;2023-08-08T15:33:36;28.0;34.0
26641;DHT22;14269;47.358;0.724;2023-08-08T15:36:17;29.0;33.0
26641;DHT22;14269;47.358;0.724;2023-08-08T15:38:49;29.0;32.0
26641;DHT22;14269;47.358;0.724;2023-08-08T15:41:52;29.0;33.0
26641;DHT22;14269;47.358;0.724;2023-08-08T15:44:33;28.0;33.0
26641;DHT22;14269;47.358;0.724;2023-08-08T15:47:05;28.0;33.0
26641;DHT22;14269;47.358;0.724;2023-08-08T15:49:37;28.0;33.0
26641;DHT22;14269;47.358;0.724;2023-08-08T15:52:08;28.0;33.0
26641;DHT22;14269;47.358;0.724;2023-08-08T15:54:39;27.0;33.0
26641;DHT22;14269;47.358;0.724;2023-08-08T15:57:11;27.0;33.0
26641;DHT22;14269;47.358;0.724;2023-08-08T15:59:43;27.0;34.0
26641;DHT22;14269;47.358;0.724;2023-08-08T16:02:14;27.0;34.0
26641;DHT22;14269;47.358;0.724;2023-08-08T16:04:46;27.0;34.0
26641;DHT22;14269;47.358;0.724;2023-08-08T16:07:28;27.0;35.0
26641;DHT22;14269;47.358;0.724;2023-08-08T16:09:59;27.0;35.0
26641;DHT22;14269;47.358;0.724;2023-08-08T16:12:41;27.0;34.0
26641;DHT22;14269;47.358;0.724;2023-08-08T16:15:13;28.0;34.0
26641;DHT22;14269;47.358;0.724;2023-08-08T16:17:45;27.0;34.0
26641;DHT22;14269;47.358;0.724;2023-08-08T16:20:17;27.0;34.0
26641;DHT22;14269;47.358;0.724;2023-08-08T16:22:48;28.0;34.0
26641;DHT22;14269;47.358;0.724;2023-08-08T16:25:19;28.0;33.0
26641;DHT22;14269;47.358;0.724;2023-08-08T16:27:51;28.0;33.0
26641;DHT22;14269;47.358;0.724;2023-08-08T16:30:23;28.0;33.0
26641;DHT22;14269;47.358;0.724;2023-08-08T16:32:54;27.0;33.0
26641;DHT22;14269;47.358;0.724;2023-08-08T16:35:26;27.0;34.0
26641;DHT22;14269;47.358;0.724;2023-08-08T16:37:57;27.0;34.0
26641;DHT22;14269;47.358;0.724;2023-08-08T16:40:29;27.0;35.0
26641;DHT22;14269;47.358;0.724;2023-08-08T16:43:01;27.0;35.0